Time;durP1;ratioP1;P1;durP2;ratioP2;P2;SDS_P1;SDS_P2;PMS_P1;PMS_P2;Temp;Humidity;BMP_temperature;BMP_pressure;BME280_temperature;BME280_humidity;BME280_pressure;Samples;Min_cycle;Max_cycle;Signal;HPM_P1;HPM_P2
2021/09/05 00:01:57;;;;;;;4.60;2.77;;;;;;;10.93;100.00;101555.88;5036126;28;20686;-71
2021/09/05 00:04:23;;;;;;;3.50;2.40;;;;;;;10.93;100.00;101561.19;5035989;28;20277;-71
2021/09/05 00:06:49;;;;;;;5.07;2.70;;;;;;;10.92;100.00;101570.16;5019555;28;20210;-71
2021/09/05 00:09:14;;;;;;;4.37;2.40;;;;;;;10.95;100.00;101563.81;5035832;28;20171;-72
2021/09/05 00:11:39;;;;;;;4.90;2.83;;;;;;;10.94;100.00;101554.06;5036390;28;20840;-71
2021/09/05 00:14:05;;;;;;;12.60;2.50;;;;;;;10.89;100.00;101558.72;5053682;28;20171;-72
2021/09/05 00:16:30;;;;;;;4.93;2.90;;;;;;;10.89;100.00;101564.06;5053431;28;20202;-69
2021/09/05 00:18:57;;;;;;;4.73;2.47;;;;;;;10.87;100.00;101561.47;5035708;28;20191;-70
2021/09/05 00:21:23;;;;;;;7.40;2.77;;;;;;;10.83;100.00;101564.34;5035483;28;20199;-72
2021/09/05 00:23:48;;;;;;;4.30;2.30;;;;;;;10.84;100.00;101564.28;5019612;28;20573;-70
2021/09/05 00:26:13;;;;;;;3.77;2.67;;;;;;;10.81;100.00;101561.75;5036190;28;20228;-69
2021/09/05 00:28:38;;;;;;;4.03;2.10;;;;;;;10.83;100.00;101570.56;5035876;28;20636;-69
2021/09/05 00:31:04;;;;;;;5.00;3.03;;;;;;;10.82;100.00;101568.81;5053879;28;20163;-70
2021/09/05 00:33:29;;;;;;;3.97;2.23;;;;;;;10.85;100.00;101576.69;5035928;28;20174;-69
2021/09/05 00:35:55;;;;;;;4.30;2.60;;;;;;;10.85;100.00;101568.69;5035778;28;20521;-71
2021/09/05 00:38:20;;;;;;;4.80;2.70;;;;;;;10.87;100.00;101566.81;5019160;28;20571;-70
2021/09/05 00:40:45;;;;;;;3.53;2.30;;;;;;;10.84;100.00;101580.28;5035434;28;20172;-71
2021/09/05 00:43:11;;;;;;;3.47;2.40;;;;;;;10.78;100.00;101577.88;5019315;28;20642;-70
2021/09/05 00:45:36;;;;;;;5.63;2.90;;;;;;;10.77;100.00;101575.25;5035470;28;20182;-71
2021/09/05 00:48:01;;;;;;;8.07;2.33;;;;;;;10.75;100.00;101575.31;5035525;28;20732;-70
2021/09/05 00:50:28;;;;;;;4.10;2.83;;;;;;;10.72;100.00;101571.91;5018788;28;20544;-70
2021/09/05 00:52:53;;;;;;;5.57;2.53;;;;;;;10.68;100.00;101571.19;5035804;28;20168;-72
2021/09/05 00:55:19;;;;;;;7.13;2.90;;;;;;;10.72;100.00;101577.25;5035521;28;20178;-71
2021/09/05 00:57:45;;;;;;;4.87;2.70;;;;;;;10.74;100.00;101576.25;5039421;28;20278;-71
2021/09/05 01:00:11;;;;;;;3.07;2.60;;;;;;;10.88;98.25;101584.56;5039414;28;20187;-70
2021/09/05 01:02:37;;;;;;;8.23;2.60;;;;;;;10.73;99.48;101574.50;5022958;28;20192;-70
2021/09/05 01:05:02;;;;;;;3.77;2.40;;;;;;;10.71;99.45;101584.41;5057066;28;20176;-69
2021/09/05 01:07:28;;;;;;;6.10;3.07;;;;;;;10.70;98.88;101582.66;5038982;28;20223;-69
2021/09/05 01:09:53;;;;;;;4.57;2.50;;;;;;;10.71;98.33;101583.53;5039414;28;20175;-71
2021/09/05 01:12:19;;;;;;;5.00;2.50;;;;;;;10.64;98.96;101580.25;5056927;28;20175;-71
2021/09/05 01:14:44;;;;;;;6.30;2.73;;;;;;;10.61;99.13;101578.56;5039116;28;20175;-70
2021/09/05 01:17:11;;;;;;;3.67;2.70;;;;;;;10.56;99.56;101577.03;5039424;28;20200;-70
2021/09/05 01:19:36;;;;;;;5.03;2.70;;;;;;;10.56;99.03;101579.69;5038672;28;20321;-70
2021/09/05 01:22:02;;;;;;;4.93;2.63;;;;;;;10.61;98.75;101585.72;5056305;28;20282;-70
2021/09/05 01:24:27;;;;;;;4.43;2.47;;;;;;;10.54;99.63;101578.91;5038318;28;20234;-70
2021/09/05 01:26:56;;;;;;;3.70;2.60;;;;;;;10.59;98.87;101582.25;5038350;28;20191;-70
2021/09/05 01:29:21;;;;;;;6.10;2.73;;;;;;;10.56;98.98;101585.03;5021883;28;20176;-71
2021/09/05 01:31:52;;;;;;;7.73;2.77;;;;;;;10.53;98.94;101582.50;5056462;28;20172;-70
2021/09/05 01:34:19;;;;;;;5.23;2.40;;;;;;;10.62;98.14;101595.47;5038644;28;20162;-70
2021/09/05 01:36:46;;;;;;;5.63;3.07;;;;;;;10.51;98.34;101595.03;5021582;28;20188;-70
2021/09/05 01:39:12;;;;;;;5.60;2.97;;;;;;;10.45;98.71;101592.63;5021872;28;20181;-70
2021/09/05 01:41:38;;;;;;;5.13;2.97;;;;;;;10.37;98.90;101595.56;5022311;28;20206;-70
2021/09/05 01:44:06;;;;;;;6.30;3.07;;;;;;;10.33;99.59;101597.50;5038479;28;20168;-70
2021/09/05 01:46:32;;;;;;;4.87;2.90;;;;;;;10.28;99.98;101594.16;5038078;28;20207;-70
2021/09/05 01:48:57;;;;;;;7.47;3.40;;;;;;;10.29;99.93;101600.34;5038459;28;20253;-69
2021/09/05 01:51:22;;;;;;;4.87;2.90;;;;;;;10.32;99.00;101598.44;5038509;28;20175;-70
2021/09/05 01:53:48;;;;;;;6.03;3.30;;;;;;;10.32;99.33;101600.22;5056562;28;20199;-70
2021/09/05 01:56:13;;;;;;;6.37;3.13;;;;;;;10.30;99.08;101602.09;5038016;28;20542;-71
2021/09/05 01:58:38;;;;;;;9.83;2.90;;;;;;;10.22;99.25;101605.06;5021818;28;20237;-71
2021/09/05 02:01:04;;;;;;;4.47;2.93;;;;;;;10.23;99.16;101606.81;5038579;28;20168;-71
2021/09/05 02:03:29;;;;;;;5.87;2.97;;;;;;;10.20;99.12;101606.03;5038798;28;20582;-70
2021/09/05 02:05:54;;;;;;;7.27;3.30;;;;;;;10.12;100.00;101601.00;5038009;28;20179;-71
2021/09/05 02:08:20;;;;;;;8.27;2.80;;;;;;;10.15;99.89;101613.34;5020569;28;20211;-69
2021/09/05 02:10:45;;;;;;;5.73;2.97;;;;;;;10.20;99.00;101612.25;5038565;28;20171;-70
2021/09/05 02:13:10;;;;;;;5.00;3.10;;;;;;;10.18;99.29;101610.56;5037880;28;20183;-70
2021/09/05 02:15:36;;;;;;;4.60;2.93;;;;;;;10.14;99.28;101609.81;5021522;28;20540;-70
2021/09/05 02:18:01;;;;;;;6.67;2.80;;;;;;;10.08;99.70;101615.38;5021432;28;20245;-70
2021/09/05 02:20:26;;;;;;;5.47;3.03;;;;;;;10.02;99.83;101611.13;5055814;28;20263;-71
2021/09/05 02:22:52;;;;;;;10.23;3.60;;;;;;;10.07;99.31;101615.44;5021659;28;20360;-69
2021/09/05 02:25:17;;;;;;;6.80;3.30;;;;;;;10.08;98.88;101620.72;5056021;28;20202;-71
2021/09/05 02:27:42;;;;;;;9.23;3.07;;;;;;;9.96;100.00;101619.34;5038815;28;20194;-70
2021/09/05 02:30:10;;;;;;;4.37;2.80;;;;;;;9.97;100.00;101620.22;5038378;28;20168;-70
2021/09/05 02:32:35;;;;;;;5.67;3.40;;;;;;;9.96;100.00;101618.50;5021432;28;20222;-70
2021/09/05 02:35:00;;;;;;;7.17;3.40;;;;;;;9.99;99.42;101623.72;5038504;28;20645;-70
2021/09/05 02:37:26;;;;;;;9.13;3.40;;;;;;;9.94;100.00;101631.00;5037852;28;20309;-69
2021/09/05 02:39:51;;;;;;;7.07;3.30;;;;;;;9.89;100.00;101628.53;5055437;28;20168;-70
2021/09/05 02:42:16;;;;;;;5.70;3.27;;;;;;;9.90;100.00;101626.72;5037402;28;20196;-70
2021/09/05 02:44:41;;;;;;;3.70;2.70;;;;;;;9.88;100.00;101625.91;5038005;28;20634;-70
2021/09/05 02:47:07;;;;;;;7.47;3.40;;;;;;;9.84;100.00;101638.50;5037791;28;20191;-70
2021/09/05 02:49:32;;;;;;;7.13;3.17;;;;;;;9.80;100.00;101636.88;5021200;28;20175;-69
2021/09/05 02:51:57;;;;;;;5.17;3.13;;;;;;;9.85;100.00;101645.56;5038298;28;20175;-72
2021/09/05 02:54:23;;;;;;;4.83;2.80;;;;;;;9.77;100.00;101639.66;5040605;28;20194;-72
2021/09/05 02:56:48;;;;;;;6.40;2.87;;;;;;;9.78;100.00;101633.41;5038366;28;20667;-71
2021/09/05 02:59:14;;;;;;;5.00;3.10;;;;;;;9.76;100.00;101637.03;5037787;28;20179;-71
2021/09/05 03:01:39;;;;;;;4.50;2.60;;;;;;;9.76;100.00;101640.59;5037092;28;20204;-70
2021/09/05 03:04:04;;;;;;;6.13;3.30;;;;;;;9.74;100.00;101652.22;5055195;28;20207;-71
2021/09/05 03:06:30;;;;;;;4.97;3.10;;;;;;;9.75;100.00;101651.31;5037548;28;20207;-70
2021/09/05 03:08:55;;;;;;;5.50;3.00;;;;;;;9.67;100.00;101643.59;5055402;28;20194;-70
2021/09/05 03:11:20;;;;;;;4.30;3.10;;;;;;;9.65;100.00;101640.94;5038432;28;20175;-70
2021/09/05 03:13:47;;;;;;;4.63;3.10;;;;;;;9.72;100.00;101646.94;5038077;28;20172;-71
2021/09/05 03:16:13;;;;;;;6.00;3.27;;;;;;;9.65;100.00;101643.63;5021264;28;20180;-70
2021/09/05 03:18:39;;;;;;;6.20;3.20;;;;;;;9.66;100.00;101649.81;5021981;28;20172;-70
2021/09/05 03:21:04;;;;;;;9.20;3.10;;;;;;;9.61;100.00;101644.66;5038599;28;20696;-70
2021/09/05 03:23:29;;;;;;;8.57;3.40;;;;;;;9.65;100.00;101653.41;5038153;28;20238;-71
2021/09/05 03:25:55;;;;;;;5.57;3.27;;;;;;;9.59;100.00;101650.97;5038457;28;20226;-70
2021/09/05 03:28:20;;;;;;;6.70;2.97;;;;;;;9.57;100.00;101650.16;5021720;28;20769;-71
2021/09/05 03:30:45;;;;;;;6.13;3.87;;;;;;;9.58;100.00;101649.22;5039022;28;20171;-71
2021/09/05 03:33:11;;;;;;;6.27;3.17;;;;;;;9.61;100.00;101649.97;5038958;28;20254;-72
2021/09/05 03:35:36;;;;;;;8.63;3.03;;;;;;;9.59;100.00;101653.63;5023444;28;20658;-71
2021/09/05 03:38:01;;;;;;;5.23;3.03;;;;;;;9.60;100.00;101652.69;5057410;28;20282;-70
2021/09/05 03:40:27;;;;;;;8.77;3.13;;;;;;;9.63;100.00;101656.13;5024304;28;20183;-71
2021/09/05 03:42:52;;;;;;;13.50;3.43;;;;;;;9.60;100.00;101652.69;5040173;28;20194;-71
2021/09/05 03:45:17;;;;;;;6.70;3.20;;;;;;;9.50;100.00;101660.16;5059117;28;20187;-71
2021/09/05 03:47:42;;;;;;;6.37;3.10;;;;;;;9.47;100.00;101662.94;5041451;28;20199;-71
2021/09/05 03:50:08;;;;;;;5.47;3.10;;;;;;;9.44;100.00;101668.38;5023921;28;20659;-71
2021/09/05 03:52:33;;;;;;;7.83;3.37;;;;;;;9.47;100.00;101670.94;5040349;28;20179;-71
2021/09/05 03:54:59;;;;;;;4.93;3.17;;;;;;;9.49;100.00;101668.22;5059276;28;20174;-72
2021/09/05 03:57:25;;;;;;;10.20;3.10;;;;;;;9.45;100.00;101670.13;5040920;28;20282;-71
2021/09/05 03:59:50;;;;;;;7.40;3.37;;;;;;;9.44;100.00;101665.72;5041756;28;20245;-72
2021/09/05 04:02:15;;;;;;;5.33;3.30;;;;;;;9.46;100.00;101673.66;5050287;28;20191;-71
2021/09/05 04:04:40;;;;;;;6.13;3.40;;;;;;;9.45;100.00;101677.25;5060030;28;20160;-71
2021/09/05 04:07:11;;;;;;;5.10;3.30;;;;;;;9.40;100.00;101674.75;5080718;22;20352;-69
2021/09/05 04:12:24;;;;;;;8.33;3.10;;;;;;;9.36;100.00;101671.31;5075118;28;20158;-67
2021/09/05 04:14:50;;;;;;;9.43;3.10;;;;;;;9.38;100.00;101674.78;5074577;28;20174;-67
2021/09/05 04:17:15;;;;;;;6.83;3.30;;;;;;;9.34;100.00;101672.28;5039895;28;20201;-68
2021/09/05 04:19:40;;;;;;;6.37;2.90;;;;;;;9.38;100.00;101673.94;5058440;28;20178;-67
2021/09/05 04:22:13;;;;;;;5.07;3.03;;;;;;;9.46;100.00;101677.19;5081783;28;20213;-66
2021/09/05 04:24:42;;;;;;;7.33;3.27;;;;;;;9.44;100.00;101675.50;5077093;28;20167;-66
2021/09/05 04:27:10;;;;;;;4.77;3.23;;;;;;;9.49;100.00;101674.41;5074664;28;20264;-67
2021/09/05 04:29:38;;;;;;;5.00;2.80;;;;;;;9.44;100.00;101676.38;5057094;28;20177;-68
2021/09/05 04:32:07;;;;;;;4.43;3.20;;;;;;;9.41;100.00;101679.16;5059724;28;20179;-68
2021/09/05 04:34:37;;;;;;;5.07;3.30;;;;;;;9.53;100.00;101670.72;5078669;28;20588;-68
2021/09/05 04:37:05;;;;;;;5.80;3.27;;;;;;;9.46;100.00;101674.53;5078273;28;20210;-67
2021/09/05 04:39:34;;;;;;;4.67;3.33;;;;;;;9.51;100.00;101685.88;5060406;28;20254;-67
2021/09/05 04:42:05;;;;;;;5.37;3.30;;;;;;;9.53;100.00;101684.03;5078319;28;20293;-67
2021/09/05 04:44:30;;;;;;;5.30;3.10;;;;;;;9.57;100.00;101687.47;5043890;28;20167;-67
2021/09/05 04:46:59;;;;;;;6.17;3.40;;;;;;;9.62;100.00;101683.72;5059896;28;20221;-67
2021/09/05 04:49:25;;;;;;;7.17;3.37;;;;;;;9.68;100.00;101683.50;5061048;28;20178;-67
2021/09/05 04:51:56;;;;;;;5.97;3.17;;;;;;;9.75;100.00;101683.28;5060764;28;20209;-68
2021/09/05 04:54:25;;;;;;;7.47;3.03;;;;;;;9.74;100.00;101690.41;5060829;28;20163;-67
2021/09/05 04:57:06;;;;;;;3.40;2.53;;;;;;;9.80;100.00;101686.66;5060226;28;20534;-67
2021/09/05 04:59:32;;;;;;;5.50;3.40;;;;;;;9.83;100.00;101691.88;5043206;28;20178;-67
2021/09/05 05:01:58;;;;;;;4.97;3.07;;;;;;;9.94;100.00;101695.00;5078198;28;20199;-67
2021/09/05 05:04:23;;;;;;;4.83;3.00;;;;;;;9.99;100.00;101693.03;5077548;28;20184;-67
2021/09/05 05:06:55;;;;;;;6.87;2.93;;;;;;;9.99;100.00;101693.91;5077229;28;20206;-68
2021/09/05 05:09:20;;;;;;;5.77;3.03;;;;;;;10.02;100.00;101698.25;5059692;28;20224;-67
2021/09/05 05:11:46;;;;;;;5.07;2.70;;;;;;;10.09;100.00;101699.81;5042297;28;20182;-67
2021/09/05 05:14:12;;;;;;;5.43;2.83;;;;;;;10.06;100.00;101704.38;5077111;28;20256;-67
2021/09/05 05:16:40;;;;;;;4.47;2.73;;;;;;;10.10;100.00;101703.34;5077148;28;20684;-66
2021/09/05 05:19:05;;;;;;;5.53;2.67;;;;;;;10.19;100.00;101705.66;5076443;28;20587;-67
2021/09/05 05:21:31;;;;;;;4.47;2.73;;;;;;;10.19;100.00;101703.00;5075964;28;20191;-67
2021/09/05 05:23:58;;;;;;;5.63;2.87;;;;;;;10.26;100.00;101704.53;5076360;28;20181;-67
2021/09/05 05:26:24;;;;;;;5.47;2.90;;;;;;;10.29;100.00;101709.75;5076259;28;20316;-67
2021/09/05 05:28:50;;;;;;;6.63;3.07;;;;;;;10.29;100.00;101713.28;5075916;28;20202;-67
2021/09/05 05:31:15;;;;;;;4.53;2.63;;;;;;;10.33;100.00;101714.91;5058282;28;20163;-66
2021/09/05 05:33:40;;;;;;;7.67;3.13;;;;;;;10.32;100.00;101713.16;5057848;28;20171;-67
2021/09/05 05:36:06;;;;;;;6.07;2.40;;;;;;;10.37;100.00;101721.00;5075855;28;20198;-66
2021/09/05 05:38:31;;;;;;;6.53;2.80;;;;;;;10.45;100.00;101720.72;5076191;28;20281;-67
2021/09/05 05:40:56;;;;;;;5.10;2.60;;;;;;;10.50;100.00;101722.28;5057944;28;20202;-66
2021/09/05 05:43:22;;;;;;;3.23;2.33;;;;;;;10.50;100.00;101716.06;5075435;28;20220;-66
2021/09/05 05:45:48;;;;;;;3.70;2.63;;;;;;;10.59;99.63;101724.59;5057979;28;20175;-66
2021/09/05 05:48:13;;;;;;;5.33;2.63;;;;;;;10.69;99.54;101729.56;5075742;28;20256;-66
2021/09/05 05:50:38;;;;;;;3.77;2.90;;;;;;;10.85;97.70;101728.91;5057615;28;20179;-67
2021/09/05 05:53:04;;;;;;;4.97;2.10;;;;;;;10.86;97.29;101729.78;5058469;28;20171;-67
2021/09/05 05:55:29;;;;;;;5.20;2.47;;;;;;;10.96;96.93;101732.03;5075655;28;20649;-67
2021/09/05 05:57:54;;;;;;;3.70;2.50;;;;;;;11.01;97.11;101737.16;5075218;28;20206;-67
2021/09/05 06:00:24;;;;;;;4.80;2.30;;;;;;;11.09;96.75;101736.84;5057460;28;20596;-67
2021/09/05 06:02:50;;;;;;;3.83;2.23;;;;;;;11.07;96.18;101739.59;5075691;28;20609;-67
2021/09/05 06:05:15;;;;;;;4.03;2.40;;;;;;;11.24;96.00;101739.78;5075148;28;20175;-66
2021/09/05 06:07:40;;;;;;;6.10;2.50;;;;;;;11.23;94.72;101739.84;5075181;28;20207;-67
2021/09/05 06:10:06;;;;;;;3.97;2.30;;;;;;;11.36;94.52;101741.06;5075431;28;20266;-67
2021/09/05 06:12:31;;;;;;;4.47;2.33;;;;;;;11.47;93.48;101751.31;5075117;28;20175;-67
2021/09/05 06:14:57;;;;;;;4.07;2.50;;;;;;;11.53;92.68;101748.41;5075496;28;20178;-67
2021/09/05 06:17:22;;;;;;;5.57;2.20;;;;;;;11.63;92.08;101748.88;5074971;28;20195;-67
2021/09/05 06:19:47;;;;;;;3.70;2.30;;;;;;;11.66;92.31;101746.06;5075324;28;20793;-67
2021/09/05 06:22:13;;;;;;;3.97;2.23;;;;;;;11.71;91.46;101749.41;5057111;28;20191;-66
2021/09/05 06:24:38;;;;;;;5.37;1.90;;;;;;;11.72;91.25;101751.13;5075215;28;20186;-67
2021/09/05 06:27:03;;;;;;;4.23;2.17;;;;;;;11.57;92.94;101750.00;5074946;28;20248;-67
2021/09/05 06:29:29;;;;;;;5.47;2.20;;;;;;;11.62;92.48;101756.03;5057018;28;20642;-66
2021/09/05 06:31:54;;;;;;;3.73;1.87;;;;;;;11.67;91.68;101755.81;5075108;28;20626;-66
2021/09/05 06:34:19;;;;;;;2.43;1.87;;;;;;;11.63;92.56;101759.56;5074921;28;20178;-66
2021/09/05 06:36:45;;;;;;;4.60;2.30;;;;;;;11.58;92.42;101763.31;5074524;28;20266;-67
2021/09/05 06:39:10;;;;;;;2.13;1.60;;;;;;;11.53;93.17;101767.97;5074716;28;20199;-67
2021/09/05 06:41:35;;;;;;;3.00;1.80;;;;;;;11.61;91.71;101772.13;5074562;28;20242;-67
2021/09/05 06:44:00;;;;;;;4.03;1.80;;;;;;;11.80;90.94;101782.00;5074622;28;20175;-67
2021/09/05 06:46:29;;;;;;;3.33;2.00;;;;;;;11.82;90.72;101777.44;5074508;28;20181;-67
2021/09/05 06:48:54;;;;;;;3.27;1.90;;;;;;;11.88;90.78;101781.66;5074759;28;20178;-67
2021/09/05 06:51:19;;;;;;;7.87;1.90;;;;;;;11.83;90.38;101795.22;5074626;28;20679;-67
2021/09/05 06:53:45;;;;;;;4.23;2.10;;;;;;;11.92;89.86;101791.31;5055959;28;20171;-67
2021/09/05 06:56:10;;;;;;;4.30;1.80;;;;;;;12.21;89.42;101790.00;5074605;28;20183;-67
2021/09/05 06:58:36;;;;;;;4.13;1.93;;;;;;;12.43;88.18;101790.81;5074315;28;20198;-67
2021/09/05 07:01:02;;;;;;;3.27;1.90;;;;;;;12.83;86.26;101789.81;5074158;28;20217;-67
2021/09/05 07:03:27;;;;;;;3.20;1.87;;;;;;;12.96;84.99;101790.09;5074737;28;20182;-67
2021/09/05 07:05:52;;;;;;;3.93;2.00;;;;;;;13.28;83.90;101796.63;5074484;28;20217;-67
2021/09/05 07:08:18;;;;;;;6.63;1.60;;;;;;;12.88;84.37;101786.06;5055740;28;20222;-67
2021/09/05 07:10:43;;;;;;;4.43;2.00;;;;;;;13.19;83.42;101786.34;5074742;28;20248;-67
2021/09/05 07:13:08;;;;;;;3.00;1.90;;;;;;;13.24;83.72;101795.03;5074046;28;20634;-67
2021/09/05 07:15:34;;;;;;;3.50;2.13;;;;;;;13.37;84.26;101793.50;5056606;28;20170;-67
2021/09/05 07:18:00;;;;;;;3.03;1.80;;;;;;;13.22;82.76;101796.06;5074567;28;20202;-67
2021/09/05 07:20:25;;;;;;;2.90;1.87;;;;;;;13.37;82.76;101795.28;5073881;28;20175;-67
2021/09/05 07:22:51;;;;;;;2.10;1.70;;;;;;;13.24;82.83;101799.53;5055680;28;20222;-67
2021/09/05 07:25:16;;;;;;;2.70;1.80;;;;;;;13.04;82.38;101803.16;5055770;28;20170;-67
2021/09/05 07:27:41;;;;;;;3.03;1.90;;;;;;;13.17;84.20;101801.66;5055650;28;20570;-67
2021/09/05 07:30:07;;;;;;;4.13;2.20;;;;;;;13.35;83.28;101806.09;5055566;28;20170;-67
2021/09/05 07:32:33;;;;;;;5.77;1.83;;;;;;;13.41;82.31;101805.81;5055802;28;20178;-67
2021/09/05 07:34:58;;;;;;;2.53;1.80;;;;;;;13.62;81.67;101803.88;5073853;28;20689;-67
2021/09/05 07:37:24;;;;;;;3.07;2.37;;;;;;;13.63;80.90;101805.59;5073999;28;20194;-66
2021/09/05 07:39:49;;;;;;;3.63;1.93;;;;;;;13.53;81.08;101806.16;5073609;28;20539;-66
2021/09/05 07:42:14;;;;;;;2.73;1.80;;;;;;;13.83;80.24;101814.47;5056333;28;20276;-67
2021/09/05 07:44:39;;;;;;;3.33;1.77;;;;;;;13.79;80.94;101804.84;5056323;28;20175;-66
2021/09/05 07:47:05;;;;;;;4.07;2.10;;;;;;;13.58;80.84;101807.66;5073549;28;20195;-67
2021/09/05 07:49:30;;;;;;;2.93;1.87;;;;;;;13.77;80.78;101811.16;5055849;28;20654;-67
2021/09/05 07:51:55;;;;;;;4.67;2.43;;;;;;;13.82;81.09;101812.75;5074078;28;20174;-67
2021/09/05 07:54:21;;;;;;;5.40;2.27;;;;;;;13.89;80.91;101809.66;5073631;28;20560;-67
2021/09/05 07:56:46;;;;;;;5.13;2.00;;;;;;;13.76;79.97;101819.28;5073627;28;20210;-66
2021/09/05 07:59:11;;;;;;;2.90;1.90;;;;;;;14.09;79.96;101820.22;5073697;28;20178;-67
2021/09/05 08:01:37;;;;;;;3.67;2.13;;;;;;;13.88;80.62;101818.66;5055791;28;20738;-67
2021/09/05 08:04:02;;;;;;;3.03;2.10;;;;;;;13.99;80.35;101823.47;5073849;28;20175;-66
2021/09/05 08:06:28;;;;;;;3.80;2.07;;;;;;;14.32;79.81;101818.16;5072698;28;20670;-67
2021/09/05 08:08:55;;;;;;;4.27;2.50;;;;;;;14.18;78.28;101826.09;5073403;28;20539;-66
2021/09/05 08:11:21;;;;;;;4.10;2.53;;;;;;;14.39;78.18;101827.63;5073596;28;20174;-66
2021/09/05 08:13:46;;;;;;;3.73;2.40;;;;;;;14.66;76.68;101830.69;5073093;28;20171;-66
2021/09/05 08:16:11;;;;;;;5.43;2.73;;;;;;;14.36;75.71;101835.84;5073605;28;20233;-66
2021/09/05 08:18:37;;;;;;;5.03;2.63;;;;;;;14.55;76.38;101825.91;5055329;28;20692;-66
2021/09/05 08:21:04;;;;;;;3.57;2.33;;;;;;;14.92;75.39;101829.28;5055603;28;20258;-67
2021/09/05 08:23:30;;;;;;;4.73;2.43;;;;;;;14.90;75.42;101823.13;5055257;28;20170;-67
2021/09/05 08:25:55;;;;;;;4.70;2.70;;;;;;;15.59;73.48;101834.41;5055253;28;20187;-66
2021/09/05 08:28:21;;;;;;;3.57;2.37;;;;;;;15.49;73.33;101829.63;5055079;28;20222;-67
2021/09/05 08:30:47;;;;;;;9.17;2.60;;;;;;;15.35;73.30;101833.09;5054967;28;20295;-67
2021/09/05 08:33:14;;;;;;;5.33;2.50;;;;;;;15.23;73.88;101841.84;5055583;28;20173;-67
2021/09/05 08:35:40;;;;;;;4.07;2.57;;;;;;;15.09;72.86;101842.63;5073157;28;20253;-67
2021/09/05 08:38:05;;;;;;;3.87;2.73;;;;;;;14.91;73.16;101843.66;5072865;28;20562;-66
2021/09/05 08:40:30;;;;;;;6.43;2.97;;;;;;;14.74;74.28;101841.00;5073165;28;20170;-66
2021/09/05 08:42:56;;;;;;;5.43;2.50;;;;;;;14.94;76.15;101843.50;5055450;28;20559;-66
2021/09/05 08:45:21;;;;;;;3.80;2.50;;;;;;;15.09;74.42;101839.94;5073114;28;20167;-66
2021/09/05 08:47:46;;;;;;;4.70;2.33;;;;;;;15.01;73.75;101843.06;5055229;28;20344;-67
2021/09/05 08:50:12;;;;;;;7.47;2.40;;;;;;;15.10;73.76;101841.69;5073377;28;20178;-67
2021/09/05 08:52:38;;;;;;;3.77;2.47;;;;;;;15.22;73.79;101842.81;5072771;28;20193;-67
2021/09/05 08:55:07;;;;;;;5.17;2.80;;;;;;;15.19;73.61;101849.22;5073723;28;20579;-66
2021/09/05 08:57:32;;;;;;;3.27;2.47;;;;;;;15.03;74.71;101853.72;5072900;28;20198;-68
2021/09/05 08:59:57;;;;;;;2.90;2.20;;;;;;;15.14;74.28;101851.31;5054869;28;20171;-67
2021/09/05 09:02:23;;;;;;;3.77;2.60;;;;;;;15.32;73.53;101854.81;5072577;28;20198;-67
2021/09/05 09:04:52;;;;;;;4.27;2.20;;;;;;;15.21;73.67;101858.06;5072801;28;20179;-67
2021/09/05 09:07:18;;;;;;;4.07;2.60;;;;;;;15.42;73.48;101860.53;5054762;28;20248;-68
2021/09/05 09:10:05;;;;;;;3.83;2.47;;;;;;;15.63;73.87;101864.72;5072634;28;20171;-67
2021/09/05 09:12:37;;;;;;;4.17;2.60;;;;;;;15.30;74.21;101860.28;5054771;28;20167;-66
2021/09/05 09:15:03;;;;;;;6.77;2.87;;;;;;;15.42;74.71;101855.13;5073215;28;20259;-66
2021/09/05 09:17:37;;;;;;;4.03;2.43;;;;;;;15.62;72.86;101857.59;5074462;28;20633;-67
2021/09/05 09:20:02;;;;;;;5.90;3.00;;;;;;;15.85;72.37;101853.56;5058649;28;20571;-67
2021/09/05 09:22:27;;;;;;;5.17;2.87;;;;;;;15.75;72.28;101852.38;5076495;28;20197;-66
2021/09/05 09:24:52;;;;;;;3.97;2.07;;;;;;;16.11;72.88;101849.31;5076644;28;20175;-67
2021/09/05 09:27:19;;;;;;;2.83;2.40;;;;;;;16.09;71.34;101841.34;5058328;28;20195;-66
2021/09/05 09:29:44;;;;;;;4.50;2.90;;;;;;;15.83;71.39;101840.19;5076366;28;20163;-66
2021/09/05 09:32:17;;;;;;;4.23;2.53;;;;;;;16.00;72.32;101836.50;5058232;28;20169;-66
2021/09/05 09:34:47;;;;;;;7.07;2.43;;;;;;;16.19;71.36;101834.41;5058679;28;20254;-66
2021/09/05 09:37:17;;;;;;;4.90;2.37;;;;;;;16.40;71.81;101840.34;5057834;28;20225;-67
2021/09/05 09:39:58;;;;;;;4.00;2.70;;;;;;;16.71;70.14;101838.44;5076347;28;20163;-67
2021/09/05 09:42:37;;;;;;;5.70;2.70;;;;;;;16.77;68.77;101835.41;5075662;28;20190;-67
2021/09/05 09:45:09;;;;;;;5.53;2.60;;;;;;;16.60;69.86;101830.16;5058186;28;20216;-68
2021/09/05 09:47:38;;;;;;;5.17;2.57;;;;;;;16.48;69.81;101823.69;5057856;28;20198;-67
2021/09/05 09:50:04;;;;;;;5.23;2.90;;;;;;;16.82;70.29;101827.88;5057747;28;20167;-65
2021/09/05 09:52:29;;;;;;;5.10;2.87;;;;;;;16.74;69.51;101822.13;5057672;28;20174;-66
2021/09/05 09:54:54;;;;;;;4.73;2.83;;;;;;;17.18;70.42;101830.91;5057752;28;20182;-67
2021/09/05 09:57:20;;;;;;;5.23;2.80;;;;;;;17.28;69.62;101835.72;5075736;28;20190;-67
2021/09/05 09:59:45;;;;;;;4.13;2.53;;;;;;;17.38;69.03;101821.50;5057748;28;20171;-67
2021/09/05 10:02:16;;;;;;;5.30;3.03;;;;;;;17.32;68.03;101823.75;5075957;28;20195;-67
2021/09/05 10:04:42;;;;;;;7.00;3.20;;;;;;;17.46;67.86;101831.78;5075568;28;20618;-67
2021/09/05 10:07:07;;;;;;;8.47;2.67;;;;;;;17.22;68.14;101830.72;5078105;22;20221;-74
2021/09/05 10:09:33;;;;;;;5.73;2.77;;;;;;;17.68;67.84;101829.44;5038520;28;20179;-74
2021/09/05 10:11:58;;;;;;;6.73;2.57;;;;;;;17.83;68.02;101823.97;5038377;28;20619;-74
2021/09/05 10:14:24;;;;;;;4.97;3.10;;;;;;;17.58;66.06;101822.03;5038893;28;20172;-74
2021/09/05 10:16:50;;;;;;;4.17;2.93;;;;;;;18.07;65.82;101811.50;5037668;28;20191;-74
2021/09/05 10:19:15;;;;;;;9.87;2.63;;;;;;;17.84;65.97;101812.19;5039990;28;20196;-73
2021/09/05 10:21:41;;;;;;;4.30;2.83;;;;;;;17.68;67.00;101815.94;5056119;28;20245;-74
2021/09/05 10:24:18;;;;;;;7.83;2.77;;;;;;;17.89;65.69;101812.78;5038582;28;20643;-73
2021/09/05 10:27:04;;;;;;;10.03;2.93;;;;;;;18.11;64.67;101804.91;5039101;28;20181;-74
2021/09/05 10:29:29;;;;;;;5.17;2.73;;;;;;;18.09;64.70;101809.56;5037321;28;20190;-74
2021/09/05 10:31:55;;;;;;;5.03;2.77;;;;;;;17.94;64.68;101816.88;5022258;28;20176;-73
2021/09/05 10:34:37;;;;;;;7.27;3.13;;;;;;;17.91;65.72;101817.09;5057229;28;20182;-74
2021/09/05 10:37:13;;;;;;;5.43;2.97;;;;;;;18.04;64.43;101799.06;5038880;28;20229;-74
2021/09/05 10:40:09;;;;;;;6.83;3.27;;;;;;;18.31;63.52;101798.13;5058867;28;20619;-74
2021/09/05 10:42:54;;;;;;;6.17;3.30;;;;;;;18.48;64.02;101799.63;5035687;28;20208;-75
2021/09/05 10:45:20;;;;;;;3.93;2.60;;;;;;;18.47;63.51;101806.00;5066013;28;20170;-73
2021/09/05 10:47:45;;;;;;;4.83;2.50;;;;;;;18.46;63.46;101797.03;5055617;28;20592;-75
2021/09/05 10:50:34;;;;;;;4.53;3.20;;;;;;;18.92;62.81;101810.84;5055719;28;20618;-74
2021/09/05 10:53:17;;;;;;;5.47;2.97;;;;;;;18.96;62.71;101798.88;5044034;28;20187;-74
2021/09/05 10:56:01;;;;;;;4.73;2.97;;;;;;;18.84;62.01;101793.47;5055678;28;20258;-73
2021/09/05 10:58:41;;;;;;;3.83;2.73;;;;;;;20.20;60.04;101801.22;5055435;28;20313;-74
2021/09/05 11:01:09;;;;;;;6.10;3.20;;;;;;;20.60;58.38;101793.53;5039082;28;20206;-74
2021/09/05 11:04:09;;;;;;;5.03;2.60;;;;;;;21.14;57.18;101798.16;5054854;28;20245;-74
2021/09/05 11:06:37;;;;;;;4.67;2.80;;;;;;;21.30;56.19;101797.81;5055922;28;20172;-74
2021/09/05 11:09:25;;;;;;;3.73;2.63;;;;;;;21.25;55.98;101799.19;5055151;28;20642;-74
2021/09/05 11:12:00;;;;;;;4.53;2.73;;;;;;;21.54;55.74;101793.03;5044519;28;20190;-75
2021/09/05 11:14:37;;;;;;;3.47;2.63;;;;;;;22.12;54.33;101796.25;5055480;28;20177;-75
2021/09/05 11:17:08;;;;;;;5.40;2.70;;;;;;;22.61;52.15;101791.09;5055485;28;20190;-74
2021/09/05 11:19:49;;;;;;;5.37;2.63;;;;;;;24.20;50.63;101799.16;5056166;28;20168;-73
2021/09/05 11:22:20;;;;;;;8.97;3.07;;;;;;;23.66;51.12;101789.72;5038878;28;20202;-74
2021/09/05 11:24:46;;;;;;;6.87;2.60;;;;;;;25.27;48.58;101792.28;5037470;28;20209;-75
2021/09/05 11:27:15;;;;;;;6.80;2.90;;;;;;;25.27;47.01;101796.91;5037221;28;20179;-75